Lanham, Nebraska
Current Conditions -  °F | °C
As of 11:55 PM on Wednesday 22 Oct 2014 (Local Time) from KMYZ Reporting Station
Moderate Rain Moderate Rain  
Wind Chill: 61°   Ceiling: 9000
Heat Index: 61°   Visibility: 7mi
Dew Point: 59°   Wind: 9mph
Humidity: 94%   Direction: 190°S
Pressure: 30.08"   Gusts: NA
Location:  40.0451°N, 96.8032°W
Report Text: KMYZ 230455Z AUTO 19008KT 7SM RA OVC090 16/15 A3008 RMK AO2 P0018
Loading
Personal Weather Stations






























Interactive Weather Map
Tropical Storm Tracking
New forecast layout! Learn more

10-Day Weather Forecast

Advertisements
Track Severe Weather on mobile